Time;durP1;ratioP1;P1;durP2;ratioP2;P2;SDS_P1;SDS_P2;PMS_P1;PMS_P2;Temp;Humidity;BMP_temperature;BMP_pressure;BME280_temperature;BME280_humidity;BME280_pressure;Samples;Min_cycle;Max_cycle;Signal;HPM_P1;HPM_P2
2022/06/07 00:01:49;;;;;;;2.67;1.20;;;;;;;;;;6116338;23;20109;-85
2022/06/07 00:04:23;;;;;;;2.47;1.10;;;;;;;;;;6143061;23;20026;-84
2022/06/07 00:06:51;;;;;;;3.15;1.30;;;;;;;;;;6143784;23;20026;-85
2022/06/07 00:09:19;;;;;;;2.33;1.20;;;;;;;;;;6144244;23;20609;-85
2022/06/07 00:11:52;;;;;;;2.47;1.20;;;;;;;;;;6150970;23;20034;-85
2022/06/07 00:15:09;;;;;;;2.47;1.10;;;;;;;;;;6106944;23;20478;-85
2022/06/07 00:17:37;;;;;;;2.20;1.27;;;;;;;;;;6128648;23;20050;-85
2022/06/07 00:20:07;;;;;;;1.77;1.10;;;;;;;;;;6148050;23;20092;-85
2022/06/07 00:22:59;;;;;;;1.95;1.08;;;;;;;;;;6155127;23;20025;-83
2022/06/07 00:25:31;;;;;;;2.00;1.00;;;;;;;;;;6161161;23;20060;-85
2022/06/07 00:27:59;;;;;;;2.17;1.02;;;;;;;;;;6177446;23;20087;-84
2022/06/07 00:30:54;;;;;;;2.00;1.23;;;;;;;;;;6221319;23;20024;-84
2022/06/07 00:33:24;;;;;;;2.47;1.20;;;;;;;;;;6311189;22;20027;-84
2022/06/07 01:11:48;;;;;;;2.35;1.35;;;;;;;;;;6311683;22;20053;-83
2022/06/07 01:14:19;;;;;;;3.83;1.42;;;;;;;;;;6266371;22;20019;-84
2022/06/07 01:16:47;;;;;;;4.25;1.83;;;;;;;;;;6286296;22;20102;-84
2022/06/07 01:19:15;;;;;;;2.65;1.27;;;;;;;;;;6286892;22;20022;-83
2022/06/07 01:21:49;;;;;;;2.85;1.45;;;;;;;;;;6312844;22;20026;-84
2022/06/07 01:52:04;;;;;;;2.33;1.20;;;;;;;;;;6309648;22;20026;-83
2022/06/07 01:55:01;;;;;;;2.05;1.13;;;;;;;;;;6285349;22;20092;-84
2022/06/07 01:57:33;;;;;;;2.03;1.10;;;;;;;;;;6310530;22;20023;-84
2022/06/07 02:00:10;;;;;;;2.67;1.13;;;;;;;;;;6310455;22;20015;-84
2022/06/07 02:30:47;;;;;;;3.80;1.02;;;;;;;;;;6313934;22;20096;-83
2022/06/07 02:33:22;;;;;;;1.95;1.00;;;;;;;;;;6255145;22;20106;-84
2022/06/07 04:31:28;;;;;;;1.83;1.00;;;;;;;;;;6321716;22;20087;-82
2022/06/07 04:34:05;;;;;;;1.83;1.05;;;;;;;;;;6318231;22;20073;-85
2022/06/07 04:36:33;;;;;;;1.85;1.02;;;;;;;;;;6293202;22;20039;-84
2022/06/07 04:39:09;;;;;;;3.50;1.10;;;;;;;;;;6256680;22;20351;-84
2022/06/07 04:41:53;;;;;;;1.58;0.98;;;;;;;;;;6295771;22;20085;-84
2022/06/07 04:44:30;;;;;;;5.07;1.50;;;;;;;;;;6317397;22;20019;-83
2022/06/07 04:52:58;;;;;;;2.22;1.10;;;;;;;;;;6298419;22;20026;-86
2022/06/07 04:57:33;;;;;;;2.83;1.33;;;;;;;;;;6006292;23;20027;-86
2022/06/07 05:00:03;;;;;;;2.53;1.45;;;;;;;;;;5931594;24;20043;-77
2022/06/07 05:02:38;;;;;;;3.40;1.50;;;;;;;;;;5921315;24;20059;-77
2022/06/07 05:05:07;;;;;;;3.63;1.52;;;;;;;;;;5931340;24;20052;-77
2022/06/07 05:07:38;;;;;;;3.20;1.58;;;;;;;;;;5944722;24;20043;-76
2022/06/07 05:10:38;;;;;;;3.90;1.65;;;;;;;;;;5945024;24;20033;-77
2022/06/07 05:13:07;;;;;;;3.10;1.70;;;;;;;;;;5921058;24;20036;-77
2022/06/07 05:15:39;;;;;;;2.50;1.42;;;;;;;;;;5922243;24;20076;-77
2022/06/07 05:18:11;;;;;;;3.20;1.73;;;;;;;;;;5938168;24;20039;-76
2022/06/07 05:20:41;;;;;;;3.88;1.65;;;;;;;;;;5984139;23;20032;-76
2022/06/07 05:23:13;;;;;;;3.55;2.00;;;;;;;;;;5987219;23;20032;-76
2022/06/07 05:25:58;;;;;;;4.93;1.75;;;;;;;;;;6018702;23;20605;-78
2022/06/07 05:28:25;;;;;;;4.22;2.00;;;;;;;;;;6072564;23;20483;-80
2022/06/07 05:30:53;;;;;;;3.50;2.00;;;;;;;;;;6106426;23;20029;-78
2022/06/07 05:33:30;;;;;;;6.15;1.85;;;;;;;;;;6242895;22;20034;-77
2022/06/07 05:35:59;;;;;;;3.47;1.98;;;;;;;;;;6272886;22;20037;-76
2022/06/07 05:38:27;;;;;;;4.28;2.08;;;;;;;;;;6300340;22;20031;-79
2022/06/07 05:41:24;;;;;;;3.78;2.20;;;;;;;;;;6309590;22;20383;-77
2022/06/07 05:44:18;;;;;;;4.00;2.30;;;;;;;;;;6310935;22;20026;-76
2022/06/07 05:46:48;;;;;;;4.45;2.08;;;;;;;;;;6282669;22;20023;-75
2022/06/07 05:49:25;;;;;;;3.60;2.22;;;;;;;;;;6300366;22;20027;-76
2022/06/07 05:52:04;;;;;;;4.40;2.50;;;;;;;;;;6311254;22;20065;-76
2022/06/07 05:54:35;;;;;;;3.72;2.28;;;;;;;;;;6299965;22;20019;-76
2022/06/07 05:57:05;;;;;;;4.90;2.63;;;;;;;;;;6284435;22;20034;-76
2022/06/07 05:59:34;;;;;;;7.70;2.88;;;;;;;;;;6273943;22;20521;-76
2022/06/07 06:02:04;;;;;;;5.70;2.58;;;;;;;;;;6298956;22;20069;-76
2022/06/07 06:04:38;;;;;;;7.18;2.67;;;;;;;;;;6274584;22;20023;-76
2022/06/07 06:07:31;;;;;;;5.32;2.80;;;;;;;;;;6311349;22;20019;-76
2022/06/07 06:12:59;;;;;;;6.60;3.20;;;;;;;;;;6284916;22;20459;-76
2022/06/07 06:15:27;;;;;;;5.68;3.03;;;;;;;;;;6310022;22;20019;-76
2022/06/07 06:18:02;;;;;;;6.22;3.85;;;;;;;;;;6284293;22;20099;-76
2022/06/07 06:20:35;;;;;;;6.43;4.05;;;;;;;;;;6299665;22;20358;-76
2022/06/07 06:23:09;;;;;;;7.15;4.15;;;;;;;;;;6300315;22;20439;-76
2022/06/07 06:25:46;;;;;;;8.25;3.70;;;;;;;;;;6311735;22;20019;-76
2022/06/07 06:28:16;;;;;;;7.47;4.22;;;;;;;;;;6309644;22;20022;-75
2022/06/07 06:30:44;;;;;;;6.43;3.88;;;;;;;;;;6273655;22;20027;-76
2022/06/07 06:33:25;;;;;;;11.13;4.50;;;;;;;;;;6299943;22;20023;-76
2022/06/07 06:35:55;;;;;;;8.20;4.85;;;;;;;;;;6311870;22;20058;-76
2022/06/07 06:38:34;;;;;;;7.68;4.43;;;;;;;;;;6272670;22;20050;-76
2022/06/07 06:41:27;;;;;;;6.60;4.32;;;;;;;;;;6282345;22;20023;-76
2022/06/07 06:43:58;;;;;;;7.95;4.80;;;;;;;;;;6309595;22;20015;-76
2022/06/07 06:46:40;;;;;;;11.50;4.82;;;;;;;;;;6308879;22;20065;-76
2022/06/07 06:49:11;;;;;;;7.53;4.63;;;;;;;;;;6310265;22;20023;-76
2022/06/07 06:52:04;;;;;;;9.48;4.60;;;;;;;;;;6310657;22;20027;-76
2022/06/07 06:54:34;;;;;;;7.97;4.47;;;;;;;;;;6310244;22;20041;-76
2022/06/07 06:57:15;;;;;;;9.93;6.22;;;;;;;;;;6251001;22;20039;-77
2022/06/07 06:59:43;;;;;;;10.05;5.13;;;;;;;;;;6273568;22;20047;-76
2022/06/07 07:02:14;;;;;;;13.68;5.35;;;;;;;;;;6283423;22;20029;-76
2022/06/07 07:05:03;;;;;;;9.43;5.32;;;;;;;;;;6305427;22;20046;-77
2022/06/07 07:07:33;;;;;;;9.13;5.53;;;;;;;;;;6283678;22;20023;-76
2022/06/07 07:10:08;;;;;;;12.90;5.88;;;;;;;;;;6298040;22;20035;-76
2022/06/07 07:12:36;;;;;;;11.15;5.88;;;;;;;;;;6282651;22;20053;-76
2022/06/07 07:15:13;;;;;;;9.85;5.10;;;;;;;;;;6273868;22;20527;-77
2022/06/07 07:17:47;;;;;;;10.48;5.80;;;;;;;;;;6282222;22;20015;-77
2022/06/07 07:20:15;;;;;;;8.52;5.10;;;;;;;;;;6283120;22;20030;-75
2022/06/07 07:22:45;;;;;;;9.23;5.70;;;;;;;;;;6273311;22;20023;-76
2022/06/07 07:25:13;;;;;;;7.60;5.00;;;;;;;;;;6310425;22;20016;-75
2022/06/07 07:30:35;;;;;;;10.15;5.35;;;;;;;;;;6271454;22;20088;-75
2022/06/07 07:33:03;;;;;;;9.20;5.10;;;;;;;;;;6271121;22;20023;-75
2022/06/07 07:35:31;;;;;;;7.80;4.50;;;;;;;;;;6309605;22;20016;-75
2022/06/07 07:38:03;;;;;;;7.38;4.35;;;;;;;;;;6291321;22;20134;-75
2022/06/07 07:40:40;;;;;;;8.35;4.35;;;;;;;;;;6311015;22;20024;-75
2022/06/07 07:43:38;;;;;;;9.10;4.57;;;;;;;;;;6298551;22;20027;-76
2022/06/07 07:46:07;;;;;;;8.95;4.43;;;;;;;;;;6271658;22;20034;-75
2022/06/07 07:48:35;;;;;;;8.05;4.22;;;;;;;;;;6305352;22;20405;-75
2022/06/07 07:51:19;;;;;;;8.38;4.30;;;;;;;;;;6302313;22;20738;-75
2022/06/07 07:53:55;;;;;;;6.75;4.47;;;;;;;;;;6269867;22;20034;-75
2022/06/07 07:56:24;;;;;;;8.43;4.60;;;;;;;;;;6283712;22;20069;-76
2022/06/07 07:58:52;;;;;;;6.28;3.78;;;;;;;;;;6298577;22;20035;-76
2022/06/07 08:01:29;;;;;;;7.45;4.00;;;;;;;;;;6305301;22;20023;-76
2022/06/07 08:04:01;;;;;;;8.82;4.15;;;;;;;;;;6304349;22;20402;-76
2022/06/07 08:06:41;;;;;;;7.70;4.75;;;;;;;;;;6267890;22;20035;-76
2022/06/07 08:09:10;;;;;;;6.43;3.88;;;;;;;;;;6306945;22;20090;-76
2022/06/07 08:11:39;;;;;;;5.43;3.67;;;;;;;;;;6308360;22;20401;-76
2022/06/07 08:14:10;;;;;;;8.15;3.67;;;;;;;;;;6305709;22;20022;-76
2022/06/07 08:16:37;;;;;;;10.68;4.32;;;;;;;;;;6302273;22;20098;-76
2022/06/07 08:19:08;;;;;;;8.55;4.00;;;;;;;;;;6295512;22;20023;-76
2022/06/07 08:21:38;;;;;;;8.10;3.88;;;;;;;;;;6304170;22;20129;-75
2022/06/07 08:24:06;;;;;;;6.43;3.40;;;;;;;;;;6305475;22;20019;-76
2022/06/07 08:26:33;;;;;;;3.95;2.90;;;;;;;;;;6297977;22;20526;-76
2022/06/07 08:29:03;;;;;;;7.07;3.47;;;;;;;;;;6299194;22;20034;-75
2022/06/07 08:31:53;;;;;;;5.32;3.00;;;;;;;;;;6299110;22;20504;-75
2022/06/07 08:40:18;;;;;;;8.00;3.35;;;;;;;;;;6299001;22;20073;-77
2022/06/07 08:42:51;;;;;;;5.03;3.03;;;;;;;;;;6309556;22;20015;-77
2022/06/07 08:45:26;;;;;;;7.50;3.00;;;;;;;;;;6308828;22;20467;-77
2022/06/07 08:48:13;;;;;;;5.88;2.97;;;;;;;;;;6310020;22;20064;-76
2022/06/07 08:50:50;;;;;;;5.82;3.63;;;;;;;;;;6309217;22;20030;-77
2022/06/07 08:53:21;;;;;;;7.90;3.63;;;;;;;;;;6309385;22;20019;-76
2022/06/07 08:55:57;;;;;;;6.63;3.33;;;;;;;;;;6308118;22;20022;-76
2022/06/07 08:58:29;;;;;;;6.65;3.20;;;;;;;;;;6299911;22;20034;-76
2022/06/07 09:01:03;;;;;;;4.53;3.10;;;;;;;;;;6307600;22;20042;-77
2022/06/07 09:03:44;;;;;;;7.60;3.47;;;;;;;;;;6309251;22;20463;-77
2022/06/07 09:06:18;;;;;;;6.78;3.70;;;;;;;;;;6309670;22;20482;-76
2022/06/07 09:08:54;;;;;;;6.18;4.03;;;;;;;;;;6309516;22;20462;-77
2022/06/07 09:14:38;;;;;;;8.10;4.32;;;;;;;;;;6300772;22;20699;-76
2022/06/07 09:17:39;;;;;;;5.68;4.28;;;;;;;;;;6300407;22;20085;-77
2022/06/07 09:20:21;;;;;;;7.50;3.90;;;;;;;;;;6311349;22;20023;-77
2022/06/07 09:22:59;;;;;;;5.95;3.38;;;;;;;;;;6300686;22;20034;-76
2022/06/07 09:25:36;;;;;;;6.72;3.90;;;;;;;;;;6309239;22;20019;-76
2022/06/07 09:28:05;;;;;;;7.60;3.55;;;;;;;;;;6301062;22;20023;-77
2022/06/07 09:30:37;;;;;;;6.05;3.30;;;;;;;;;;6300411;22;20053;-77
2022/06/07 09:33:35;;;;;;;5.43;3.42;;;;;;;;;;6310791;22;20031;-77
2022/06/07 09:36:25;;;;;;;7.25;3.03;;;;;;;;;;6299586;22;20101;-77
2022/06/07 09:39:01;;;;;;;5.38;3.47;;;;;;;;;;6310593;22;20019;-76
2022/06/07 09:41:40;;;;;;;6.53;3.35;;;;;;;;;;6309618;22;20541;-77
2022/06/07 09:44:25;;;;;;;5.30;3.20;;;;;;;;;;6300066;22;20031;-77
2022/06/07 09:47:03;;;;;;;6.32;3.22;;;;;;;;;;6310409;22;20015;-75
2022/06/07 09:49:38;;;;;;;7.00;3.15;;;;;;;;;;6311791;22;20105;-75
2022/06/07 09:52:10;;;;;;;6.60;3.25;;;;;;;;;;6310868;22;20019;-75
2022/06/07 09:54:46;;;;;;;4.65;3.03;;;;;;;;;;6300855;22;20053;-77
2022/06/07 09:57:33;;;;;;;8.55;3.67;;;;;;;;;;6300555;22;20027;-74
2022/06/07 10:00:50;;;;;;;4.53;2.65;;;;;;;;;;6310396;22;20023;-76
2022/06/07 10:03:59;;;;;;;11.23;3.38;;;;;;;;;;6298905;22;20355;-76
2022/06/07 10:06:36;;;;;;;6.18;3.40;;;;;;;;;;6282155;22;20405;-76
2022/06/07 10:09:45;;;;;;;6.03;3.20;;;;;;;;;;6310926;22;20703;-75
2022/06/07 10:12:44;;;;;;;7.97;3.17;;;;;;;;;;6268064;22;20118;-75
2022/06/07 10:15:27;;;;;;;5.40;3.78;;;;;;;;;;6298273;22;20065;-74
2022/06/07 10:18:07;;;;;;;5.03;3.15;;;;;;;;;;6299556;22;20062;-75
2022/06/07 10:20:42;;;;;;;4.72;3.00;;;;;;;;;;6298837;22;20023;-74
2022/06/07 10:23:53;;;;;;;6.65;3.15;;;;;;;;;;6310591;22;20419;-75
2022/06/07 10:26:48;;;;;;;6.00;3.60;;;;;;;;;;6293548;22;20038;-75
2022/06/07 10:29:20;;;;;;;5.00;3.00;;;;;;;;;;6308974;22;20019;-75
2022/06/07 10:31:55;;;;;;;6.25;3.00;;;;;;;;;;6310289;22;20054;-75
2022/06/07 10:34:33;;;;;;;8.30;3.40;;;;;;;;;;6308834;22;20065;-75
2022/06/07 10:37:59;;;;;;;6.13;3.03;;;;;;;;;;6309254;22;20019;-74
2022/06/07 10:41:11;;;;;;;6.85;2.90;;;;;;;;;;6143050;23;20029;-76
2022/06/07 10:43:50;;;;;;;7.32;3.13;;;;;;;;;;6175590;23;20123;-76
2022/06/07 10:46:20;;;;;;;4.88;3.03;;;;;;;;;;6174657;23;20025;-76
2022/06/07 10:49:15;;;;;;;6.18;3.38;;;;;;;;;;6173887;23;20385;-76
2022/06/07 10:52:24;;;;;;;;;;;;;;;;;;6174600;23;20084;-76
2022/06/07 10:55:09;;;;;;;6.25;3.35;;;;;;;;;;6174620;23;19920;-76
2022/06/07 10:57:53;;;;;;;5.63;3.50;;;;;;;;;;6174118;23;20025;-76
2022/06/07 11:01:01;;;;;;;6.65;3.65;;;;;;;;;;6184891;23;20020;-76
2022/06/07 11:03:33;;;;;;;5.82;3.03;;;;;;;;;;6180774;23;20085;-76
2022/06/07 11:09:22;;;;;;;7.85;3.78;;;;;;;;;;6183509;23;20059;-76
2022/06/07 11:11:59;;;;;;;6.22;2.95;;;;;;;;;;6181899;23;20025;-76
2022/06/07 11:14:46;;;;;;;8.00;3.50;;;;;;;;;;6183523;23;20433;-76
2022/06/07 11:17:43;;;;;;;8.40;3.80;;;;;;;;;;6260056;22;20414;-77
2022/06/07 11:20:21;;;;;;;5.88;3.53;;;;;;;;;;6287152;22;20023;-76
2022/06/07 11:23:15;;;;;;;12.23;4.57;;;;;;;;;;6280289;22;20023;-76
2022/06/07 11:26:07;;;;;;;6.00;3.75;;;;;;;;;;6297705;22;20462;-76
2022/06/07 11:28:41;;;;;;;6.32;3.65;;;;;;;;;;6307755;22;20790;-75
2022/06/07 11:31:33;;;;;;;7.47;4.13;;;;;;;;;;6298721;22;20022;-76
2022/06/07 11:34:25;;;;;;;7.10;3.63;;;;;;;;;;6297632;22;20030;-76
2022/06/07 11:37:02;;;;;;;7.50;4.90;;;;;;;;;;6308541;22;20170;-76
2022/06/07 11:39:40;;;;;;;8.05;4.45;;;;;;;;;;6308240;22;20015;-76
2022/06/07 11:42:07;;;;;;;8.55;5.18;;;;;;;;;;6307278;22;20094;-76
2022/06/07 11:45:18;;;;;;;10.57;4.82;;;;;;;;;;6308073;22;20045;-76
2022/06/07 11:47:45;;;;;;;8.55;4.50;;;;;;;;;;6305949;22;20019;-76
2022/06/07 11:50:31;;;;;;;8.95;5.65;;;;;;;;;;6308699;22;20027;-76
2022/06/07 11:53:24;;;;;;;11.35;5.95;;;;;;;;;;6297930;22;20027;-76
2022/06/07 11:56:17;;;;;;;7.40;4.97;;;;;;;;;;6308878;22;20069;-76
2022/06/07 11:58:55;;;;;;;7.03;4.65;;;;;;;;;;6297021;22;20050;-76
2022/06/07 12:01:44;;;;;;;8.10;5.22;;;;;;;;;;6307481;22;20042;-77
2022/06/07 12:04:29;;;;;;;9.57;5.78;;;;;;;;;;6305667;22;20715;-76
2022/06/07 12:07:17;;;;;;;;;;;;;;;;;;6308754;22;20019;-77
2022/06/07 12:09:49;;;;;;;9.18;5.32;;;;;;;;;;6308310;22;19988;-76
2022/06/07 12:12:35;;;;;;;8.68;5.30;;;;;;;;;;6307628;22;20555;-75
2022/06/07 12:15:20;;;;;;;8.57;5.55;;;;;;;;;;6308814;22;20514;-76
2022/06/07 12:17:59;;;;;;;8.63;4.90;;;;;;;;;;6296265;22;20355;-75
2022/06/07 12:20:38;;;;;;;11.10;5.80;;;;;;;;;;6307288;22;20423;-77
2022/06/07 12:23:20;;;;;;;8.00;5.40;;;;;;;;;;6308125;22;20023;-77
2022/06/07 12:26:02;;;;;;;9.05;5.93;;;;;;;;;;6295733;22;20023;-76
2022/06/07 12:28:33;;;;;;;8.05;5.80;;;;;;;;;;6298414;22;20570;-77
2022/06/07 12:31:31;;;;;;;8.02;5.40;;;;;;;;;;6308236;22;20166;-77
2022/06/07 12:34:29;;;;;;;8.45;5.03;;;;;;;;;;6308593;22;20023;-77
2022/06/07 12:37:21;;;;;;;9.18;5.93;;;;;;;;;;6297937;22;20026;-77
2022/06/07 12:39:56;;;;;;;11.23;5.97;;;;;;;;;;6270801;22;20053;-78
2022/06/07 12:42:27;;;;;;;8.50;5.93;;;;;;;;;;6305655;22;20035;-76
2022/06/07 12:45:34;;;;;;;12.95;7.03;;;;;;;;;;6297775;22;20114;-75
2022/06/07 12:48:21;;;;;;;10.13;6.25;;;;;;;;;;6297659;22;20542;-75
2022/06/07 12:51:30;;;;;;;9.75;5.95;;;;;;;;;;6306268;22;20510;-75
2022/06/07 12:54:17;;;;;;;9.68;5.50;;;;;;;;;;6298115;22;20031;-76
2022/06/07 12:56:54;;;;;;;10.52;6.22;;;;;;;;;;6305005;22;20069;-76
2022/06/07 12:59:50;;;;;;;9.88;6.43;;;;;;;;;;6296943;22;20031;-75
2022/06/07 13:02:34;;;;;;;9.35;6.25;;;;;;;;;;6307122;22;20023;-76
2022/06/07 13:05:24;;;;;;;8.38;5.50;;;;;;;;;;6309192;22;20053;-75
2022/06/07 13:07:56;;;;;;;9.93;6.00;;;;;;;;;;6297839;22;20035;-76
2022/06/07 13:10:34;;;;;;;7.82;5.72;;;;;;;;;;6296122;22;20023;-77
2022/06/07 13:13:37;;;;;;;9.73;5.47;;;;;;;;;;6297861;22;20105;-76
2022/06/07 13:16:11;;;;;;;11.63;6.40;;;;;;;;;;6308391;22;20026;-76
2022/06/07 13:18:43;;;;;;;9.55;6.05;;;;;;;;;;6280350;22;20042;-76
2022/06/07 13:21:21;;;;;;;11.50;5.65;;;;;;;;;;6296564;22;20310;-76
2022/06/07 13:23:57;;;;;;;9.05;6.25;;;;;;;;;;6296943;22;20051;-76
2022/06/07 13:26:33;;;;;;;12.50;6.80;;;;;;;;;;6296788;22;20023;-76
2022/06/07 13:29:07;;;;;;;11.48;6.78;;;;;;;;;;6297540;22;20027;-76
2022/06/07 13:31:41;;;;;;;12.63;5.68;;;;;;;;;;6296503;22;20023;-76
2022/06/07 13:34:20;;;;;;;8.32;5.40;;;;;;;;;;6297575;22;20077;-76
2022/06/07 13:37:10;;;;;;;11.20;6.45;;;;;;;;;;6295802;22;20038;-76
2022/06/07 13:39:57;;;;;;;10.68;5.72;;;;;;;;;;6297289;22;20023;-76
2022/06/07 13:42:39;;;;;;;10.43;5.05;;;;;;;;;;6297828;22;20033;-76
2022/06/07 13:45:13;;;;;;;8.55;5.03;;;;;;;;;;6297507;22;20027;-76
2022/06/07 13:47:52;;;;;;;11.77;5.55;;;;;;;;;;6308278;22;20023;-76
2022/06/07 13:53:27;;;;;;;;;;;;;;;;;;6297451;22;20027;-75
2022/06/07 13:56:20;;;;;;;9.18;5.55;;;;;;;;;;6297606;22;19915;-76
2022/06/07 13:58:56;;;;;;;10.38;6.82;;;;;;;;;;6297910;22;20042;-76
2022/06/07 14:01:34;;;;;;;9.13;6.22;;;;;;;;;;6298969;22;20100;-76
2022/06/07 14:04:25;;;;;;;13.77;6.13;;;;;;;;;;6300164;22;20027;-76
2022/06/07 14:06:58;;;;;;;9.05;5.32;;;;;;;;;;6308825;22;20224;-76
2022/06/07 14:09:30;;;;;;;11.68;6.40;;;;;;;;;;6299268;22;20041;-75
2022/06/07 14:12:04;;;;;;;12.27;6.60;;;;;;;;;;6307056;22;20211;-76
2022/06/07 14:14:31;;;;;;;8.52;5.88;;;;;;;;;;6299953;22;20027;-76
2022/06/07 14:17:25;;;;;;;10.07;5.82;;;;;;;;;;6309236;22;20025;-76
2022/06/07 14:19:55;;;;;;;12.90;6.53;;;;;;;;;;6299028;22;20455;-76
2022/06/07 14:22:27;;;;;;;9.10;6.00;;;;;;;;;;6297897;22;20024;-76
2022/06/07 14:25:01;;;;;;;10.13;5.97;;;;;;;;;;6309326;22;20142;-76
2022/06/07 14:27:30;;;;;;;9.25;5.43;;;;;;;;;;6298396;22;20530;-76
2022/06/07 14:30:04;;;;;;;9.40;5.90;;;;;;;;;;6298455;22;20023;-76
2022/06/07 14:32:37;;;;;;;9.30;6.07;;;;;;;;;;6305667;22;20062;-76
2022/06/07 14:35:32;;;;;;;10.25;6.13;;;;;;;;;;6297594;22;20088;-76
2022/06/07 14:38:24;;;;;;;7.63;5.95;;;;;;;;;;6300132;22;20031;-76
2022/06/07 14:40:51;;;;;;;7.47;4.90;;;;;;;;;;6300207;22;20027;-76
2022/06/07 14:43:24;;;;;;;10.00;5.53;;;;;;;;;;6308601;22;20045;-76
2022/06/07 14:46:02;;;;;;;7.30;5.38;;;;;;;;;;6298885;22;20081;-76
2022/06/07 14:48:38;;;;;;;11.27;5.68;;;;;;;;;;6296658;22;20443;-76
2022/06/07 14:51:27;;;;;;;9.48;5.50;;;;;;;;;;6298136;22;20027;-77
2022/06/07 14:54:25;;;;;;;11.13;5.70;;;;;;;;;;6297991;22;20072;-76
2022/06/07 14:56:53;;;;;;;10.27;6.22;;;;;;;;;;6296338;22;20043;-76
2022/06/07 14:59:22;;;;;;;11.05;5.78;;;;;;;;;;6298342;22;20027;-76
2022/06/07 15:01:53;;;;;;;10.27;5.47;;;;;;;;;;6297379;22;20081;-76
2022/06/07 15:04:33;;;;;;;10.23;5.78;;;;;;;;;;6309607;22;20343;-77
2022/06/07 15:07:11;;;;;;;9.30;5.18;;;;;;;;;;6299349;22;20027;-76
2022/06/07 15:09:44;;;;;;;7.22;4.40;;;;;;;;;;6309395;22;20073;-76
2022/06/07 15:12:11;;;;;;;13.07;5.10;;;;;;;;;;6298727;22;20046;-76
2022/06/07 15:14:44;;;;;;;8.50;4.57;;;;;;;;;;6309274;22;20019;-77
2022/06/07 15:17:29;;;;;;;7.25;4.63;;;;;;;;;;6308281;22;20046;-76
2022/06/07 15:19:57;;;;;;;8.13;4.80;;;;;;;;;;6299152;22;20034;-78
2022/06/07 15:22:25;;;;;;;10.45;4.82;;;;;;;;;;6308850;22;20042;-80
2022/06/07 15:24:53;;;;;;;11.45;4.75;;;;;;;;;;6270669;22;20497;-77
2022/06/07 15:27:21;;;;;;;7.60;4.32;;;;;;;;;;6297610;22;20030;-77
2022/06/07 15:29:55;;;;;;;9.43;4.72;;;;;;;;;;6308765;22;20089;-78
2022/06/07 15:32:26;;;;;;;11.13;5.43;;;;;;;;;;6307393;22;20015;-78
2022/06/07 15:35:05;;;;;;;8.98;5.30;;;;;;;;;;6300508;22;20052;-78
2022/06/07 15:37:38;;;;;;;11.93;5.45;;;;;;;;;;6309162;22;20022;-77
2022/06/07 15:40:07;;;;;;;10.77;5.55;;;;;;;;;;6310371;22;20027;-81
2022/06/07 15:42:51;;;;;;;9.75;5.70;;;;;;;;;;6283467;22;20321;-77
2022/06/07 15:45:21;;;;;;;9.88;5.03;;;;;;;;;;6309924;22;20026;-78
2022/06/07 15:48:06;;;;;;;8.07;4.90;;;;;;;;;;6298425;22;20023;-78
2022/06/07 15:50:59;;;;;;;9.02;4.30;;;;;;;;;;6309964;22;20118;-77
2022/06/07 15:53:30;;;;;;;7.70;4.60;;;;;;;;;;6299164;22;20336;-77
2022/06/07 15:55:59;;;;;;;15.60;5.38;;;;;;;;;;6299685;22;20477;-77
2022/06/07 16:01:26;;;;;;;6.57;4.18;;;;;;;;;;6298872;22;20403;-77
2022/06/07 16:03:55;;;;;;;8.93;4.45;;;;;;;;;;6308768;22;20541;-78
2022/06/07 16:06:27;;;;;;;7.28;4.50;;;;;;;;;;6309580;22;20355;-77
2022/06/07 16:09:25;;;;;;;8.73;4.68;;;;;;;;;;6299526;22;20011;-77
2022/06/07 16:11:53;;;;;;;8.65;4.07;;;;;;;;;;6309218;22;20019;-77
2022/06/07 16:14:46;;;;;;;7.80;4.45;;;;;;;;;;6298396;22;20561;-77
2022/06/07 16:17:15;;;;;;;7.90;4.32;;;;;;;;;;6271321;22;20031;-78
2022/06/07 16:19:43;;;;;;;7.63;4.43;;;;;;;;;;6309365;22;20098;-78
2022/06/07 16:22:37;;;;;;;10.02;5.05;;;;;;;;;;6307939;22;20029;-77
2022/06/07 16:25:06;;;;;;;9.15;4.93;;;;;;;;;;6299127;22;20027;-78
2022/06/07 16:33:21;;;;;;;11.23;5.20;;;;;;;;;;6308982;22;20062;-77
2022/06/07 16:36:06;;;;;;;10.20;5.70;;;;;;;;;;6298719;22;20039;-77
2022/06/07 16:38:43;;;;;;;13.70;5.55;;;;;;;;;;6283667;22;20767;-82
2022/06/07 16:41:16;;;;;;;11.45;5.22;;;;;;;;;;6309292;22;20100;-82
2022/06/07 16:44:02;;;;;;;16.88;5.25;;;;;;;;;;6271536;22;20031;-82
2022/06/07 16:46:40;;;;;;;12.57;5.25;;;;;;;;;;6282198;22;20019;-83
2022/06/07 16:49:18;;;;;;;10.52;5.43;;;;;;;;;;6309201;22;20046;-77
2022/06/07 16:51:46;;;;;;;8.35;5.07;;;;;;;;;;6271418;22;20027;-77
2022/06/07 16:54:15;;;;;;;11.48;5.22;;;;;;;;;;6309078;22;20019;-79
2022/06/07 16:56:44;;;;;;;10.48;5.82;;;;;;;;;;6270411;22;20022;-76
2022/06/07 16:59:12;;;;;;;12.55;5.80;;;;;;;;;;6298887;22;20419;-75
2022/06/07 17:02:03;;;;;;;9.63;5.53;;;;;;;;;;6300817;22;20011;-75
2022/06/07 17:04:31;;;;;;;11.20;5.35;;;;;;;;;;6303203;22;20463;-75
2022/06/07 17:06:59;;;;;;;10.70;5.40;;;;;;;;;;6308915;22;20149;-74
2022/06/07 17:09:27;;;;;;;9.70;5.60;;;;;;;;;;6297570;22;20031;-76
2022/06/07 17:12:00;;;;;;;8.63;5.30;;;;;;;;;;6308881;22;20016;-79
2022/06/07 17:14:27;;;;;;;8.52;5.25;;;;;;;;;;6306929;22;20045;-76
2022/06/07 17:16:55;;;;;;;7.93;4.68;;;;;;;;;;6298244;22;20031;-75
2022/06/07 17:19:26;;;;;;;9.20;5.20;;;;;;;;;;6306969;22;20015;-75
2022/06/07 17:22:18;;;;;;;7.68;4.75;;;;;;;;;;6307793;22;20011;-75
2022/06/07 17:25:10;;;;;;;8.23;4.82;;;;;;;;;;6307523;22;20014;-75
2022/06/07 17:27:43;;;;;;;10.23;4.70;;;;;;;;;;6307845;22;20023;-76
2022/06/07 17:30:15;;;;;;;9.48;4.75;;;;;;;;;;6271438;22;20534;-75
2022/06/07 17:32:43;;;;;;;8.63;4.82;;;;;;;;;;6309064;22;20335;-75
2022/06/07 17:35:14;;;;;;;8.20;4.20;;;;;;;;;;6309049;22;20038;-75
2022/06/07 17:38:05;;;;;;;10.30;4.70;;;;;;;;;;6310747;22;20086;-75
2022/06/07 17:40:36;;;;;;;9.00;4.80;;;;;;;;;;6309563;22;20022;-75
2022/06/07 17:43:04;;;;;;;8.32;4.28;;;;;;;;;;6310436;22;20029;-75
2022/06/07 17:45:31;;;;;;;8.25;4.30;;;;;;;;;;6310378;22;20400;-75
2022/06/07 17:47:59;;;;;;;8.48;5.10;;;;;;;;;;6308453;22;20042;-75
2022/06/07 17:53:27;;;;;;;6.65;4.18;;;;;;;;;;6271290;22;20023;-75
2022/06/07 17:56:04;;;;;;;11.32;4.57;;;;;;;;;;6310551;22;20129;-75
2022/06/07 17:58:31;;;;;;;8.95;4.20;;;;;;;;;;6310174;22;20537;-76
2022/06/07 18:00:59;;;;;;;12.73;4.57;;;;;;;;;;6307756;22;20114;-76
2022/06/07 18:03:29;;;;;;;8.43;4.35;;;;;;;;;;6308366;22;20126;-75
2022/06/07 18:05:58;;;;;;;9.40;4.35;;;;;;;;;;6309251;22;20087;-76
2022/06/07 18:08:26;;;;;;;6.55;3.75;;;;;;;;;;6310219;22;20012;-75
2022/06/07 18:10:53;;;;;;;6.85;4.13;;;;;;;;;;6310620;22;20510;-76
2022/06/07 18:13:27;;;;;;;8.73;4.38;;;;;;;;;;6309060;22;20015;-76
2022/06/07 18:15:57;;;;;;;9.15;4.70;;;;;;;;;;6309203;22;20616;-76
2022/06/07 18:18:26;;;;;;;8.98;4.43;;;;;;;;;;6308579;22;20506;-76
2022/06/07 18:20:54;;;;;;;8.15;4.32;;;;;;;;;;6309379;22;20087;-76
2022/06/07 18:23:27;;;;;;;12.75;4.53;;;;;;;;;;6308606;22;20031;-75
2022/06/07 18:25:56;;;;;;;8.02;4.13;;;;;;;;;;6297038;22;20038;-76
2022/06/07 18:28:24;;;;;;;8.63;4.05;;;;;;;;;;6309487;22;20065;-76
2022/06/07 18:30:52;;;;;;;5.82;4.05;;;;;;;;;;6310254;22;20019;-76
2022/06/07 18:33:20;;;;;;;6.55;3.33;;;;;;;;;;6308026;22;20105;-76
2022/06/07 18:35:48;;;;;;;10.43;4.05;;;;;;;;;;6310790;22;20046;-76
2022/06/07 18:38:17;;;;;;;7.32;4.07;;;;;;;;;;6300526;22;20019;-75
2022/06/07 18:40:48;;;;;;;8.40;3.42;;;;;;;;;;6300103;22;20027;-76
2022/06/07 18:43:24;;;;;;;7.10;3.30;;;;;;;;;;6309501;22;20764;-75
2022/06/07 18:45:58;;;;;;;6.28;3.55;;;;;;;;;;6310317;22;20022;-75
2022/06/07 18:48:25;;;;;;;7.78;3.80;;;;;;;;;;6299582;22;20051;-75
2022/06/07 18:50:54;;;;;;;7.55;3.20;;;;;;;;;;6310042;22;20371;-76
2022/06/07 18:53:28;;;;;;;5.55;3.05;;;;;;;;;;6299839;22;20033;-75
2022/06/07 18:56:04;;;;;;;6.50;3.28;;;;;;;;;;6309956;22;20023;-75
2022/06/07 18:58:32;;;;;;;11.25;3.83;;;;;;;;;;6309377;22;20016;-75
2022/06/07 19:01:01;;;;;;;6.53;3.00;;;;;;;;;;6309856;22;20025;-75
2022/06/07 19:03:30;;;;;;;4.50;2.80;;;;;;;;;;6297658;22;20031;-74
2022/06/07 19:05:57;;;;;;;6.40;2.63;;;;;;;;;;6299531;22;20596;-75
2022/06/07 19:08:25;;;;;;;6.80;2.80;;;;;;;;;;6271893;22;20027;-74
2022/06/07 19:10:55;;;;;;;5.57;2.92;;;;;;;;;;6300024;22;20034;-74
2022/06/07 19:13:23;;;;;;;7.72;3.20;;;;;;;;;;6298824;22;20030;-74
2022/06/07 19:15:53;;;;;;;5.32;2.95;;;;;;;;;;6310051;22;20022;-75
2022/06/07 19:18:21;;;;;;;5.15;2.53;;;;;;;;;;6308070;22;20026;-74
2022/06/07 19:20:53;;;;;;;5.35;2.63;;;;;;;;;;6309225;22;20034;-75
2022/06/07 19:23:21;;;;;;;7.45;3.17;;;;;;;;;;6298115;22;20098;-75
2022/06/07 19:25:49;;;;;;;5.03;2.40;;;;;;;;;;6299482;22;20027;-75
2022/06/07 19:28:20;;;;;;;3.60;2.22;;;;;;;;;;6270550;22;20107;-74
2022/06/07 19:30:54;;;;;;;6.13;2.40;;;;;;;;;;6309132;22;20027;-75
2022/06/07 19:33:24;;;;;;;4.32;2.45;;;;;;;;;;6308309;22;20434;-75
2022/06/07 19:35:51;;;;;;;4.13;2.30;;;;;;;;;;6298877;22;20052;-74
2022/06/07 19:38:19;;;;;;;5.80;2.08;;;;;;;;;;6298744;22;20049;-75
2022/06/07 19:40:48;;;;;;;6.10;2.35;;;;;;;;;;6308901;22;20015;-74
2022/06/07 19:43:18;;;;;;;4.07;2.25;;;;;;;;;;6308762;22;20042;-74
2022/06/07 19:45:48;;;;;;;3.58;2.20;;;;;;;;;;6298303;22;20062;-74
2022/06/07 19:48:25;;;;;;;5.75;2.50;;;;;;;;;;6297586;22;20023;-75